Four Nabucco — ZGAP9 — position and weather

sailwx.info

Track history (hours):
 
Tides and Currents Weather Stations Pressure Air Temp Water Temp Dewpoint Dewpoint Depression Visibility Wind Speed Wind Dir Waves Ship Positions

Four Nabucco

Last reported at 2016-May-20 18:30 UTC. Time now 2016-May-26 08:50 UTC.
Position N 29°52' W 089°55'.

Length 180 m; draft 10 m.

Type: Cargo ship. MMSI: 319030700.

Date/timePositionNaut miles runAvg speedWind from/ knotsBaromVisibWave heightAir tempDewpointWater temp
2016-May-20 18:30N 29°52' W 089°55'9 9.3
2016-May-20 17:33N 29°57' W 090°03'  
2016-May-16 04:33N 29°54' W 090°07'6 6.0
2016-May-16 03:33N 29°57' W 090°00'0 0.4
2016-May-16 02:32N 29°56' W 089°60'0 0.0
2016-May-16 01:33N 29°56' W 089°60'0 0.0
2016-May-16 00:33N 29°56' W 089°60'0 0.0
2016-May-15 23:33N 29°56' W 089°60'0 0.0
2016-May-15 22:33N 29°56' W 089°60'0 0.0
2016-May-15 21:33N 29°56' W 089°60'0 0.1
2016-May-15 20:33N 29°56' W 089°60'4 2.7
2016-May-15 19:08N 29°53' W 089°58'5 8.6
2016-May-15 18:31N 29°48' W 090°01'  
Track history (hours):
 
Tides and Currents Weather Stations Pressure Air Temp Water Temp Dewpoint Dewpoint Depression Visibility Wind Speed Wind Dir Waves Ship Positions

Four Nabucco

Last reported at 2016-May-20 18:30 UTC. Time now 2016-May-26 08:50 UTC.
Position N 29°52' W 089°55'.

Length 180 m; draft 10 m.

Type: Cargo ship. MMSI: 319030700.

Date/timePositionNaut miles runAvg speedWind from/ knotsBaromVisibWave heightAir tempDewpointWater temp
2016-May-20 18:30N 29°52' W 089°55'9 9.3
2016-May-20 17:33N 29°57' W 090°03'  
2016-May-16 04:33N 29°54' W 090°07'6 6.0
2016-May-16 03:33N 29°57' W 090°00'0 0.4
2016-May-16 02:32N 29°56' W 089°60'0 0.0
2016-May-16 01:33N 29°56' W 089°60'0 0.0
2016-May-16 00:33N 29°56' W 089°60'0 0.0
2016-May-15 23:33N 29°56' W 089°60'0 0.0
2016-May-15 22:33N 29°56' W 089°60'0 0.0
2016-May-15 21:33N 29°56' W 089°60'0 0.1
2016-May-15 20:33N 29°56' W 089°60'4 2.7
2016-May-15 19:08N 29°53' W 089°58'5 8.6
2016-May-15 18:31N 29°48' W 090°01'  

Dump ship's entire track history